sensor_id;sensor_type;location;lat;lon;timestamp;pressure;altitude;pressure_sealevel;temperature
15544;BMP180;7873;52.230;12.856;2023-02-22T00:00:22;100936.28;;;25.65
15544;BMP180;7873;52.230;12.856;2023-02-22T00:02:55;100933.94;;;25.62
15544;BMP180;7873;52.230;12.856;2023-02-22T00:05:26;100940.34;;;25.61
15544;BMP180;7873;52.230;12.856;2023-02-22T00:07:56;100932.84;;;25.57
15544;BMP180;7873;52.230;12.856;2023-02-22T00:10:23;100934.25;;;25.53
15544;BMP180;7873;52.230;12.856;2023-02-22T00:12:51;100925.47;;;25.51
15544;BMP180;7873;52.230;12.856;2023-02-22T00:15:20;100932.50;;;25.45
15544;BMP180;7873;52.230;12.856;2023-02-22T00:17:47;100932.66;;;25.44
15544;BMP180;7873;52.230;12.856;2023-02-22T00:20:15;100933.03;;;25.41
15544;BMP180;7873;52.230;12.856;2023-02-22T00:22:46;100930.72;;;25.38
15544;BMP180;7873;52.230;12.856;2023-02-22T00:25:14;100932.94;;;25.34
15544;BMP180;7873;52.230;12.856;2023-02-22T00:27:41;100932.13;;;25.34
15544;BMP180;7873;52.230;12.856;2023-02-22T00:30:13;100930.16;;;25.28
15544;BMP180;7873;52.230;12.856;2023-02-22T00:32:43;100934.09;;;25.25
15544;BMP180;7873;52.230;12.856;2023-02-22T00:35:11;100933.59;;;25.22
15544;BMP180;7873;52.230;12.856;2023-02-22T00:37:37;100931.13;;;25.20
15544;BMP180;7873;52.230;12.856;2023-02-22T00:40:08;100932.13;;;25.19
15544;BMP180;7873;52.230;12.856;2023-02-22T00:42:35;100933.47;;;25.15
15544;BMP180;7873;52.230;12.856;2023-02-22T00:45:02;100928.09;;;25.15
15544;BMP180;7873;52.230;12.856;2023-02-22T00:47:30;100927.63;;;25.12
15544;BMP180;7873;52.230;12.856;2023-02-22T00:49:56;100927.38;;;25.07
15544;BMP180;7873;52.230;12.856;2023-02-22T00:52:24;100923.66;;;25.08
15544;BMP180;7873;52.230;12.856;2023-02-22T00:54:52;100927.72;;;25.04
15544;BMP180;7873;52.230;12.856;2023-02-22T00:57:20;100930.41;;;25.04
15544;BMP180;7873;52.230;12.856;2023-02-22T00:59:47;100928.28;;;24.99
15544;BMP180;7873;52.230;12.856;2023-02-22T01:02:14;100926.63;;;24.98
15544;BMP180;7873;52.230;12.856;2023-02-22T01:04:41;100925.13;;;24.96
15544;BMP180;7873;52.230;12.856;2023-02-22T01:07:08;100924.63;;;24.92
15544;BMP180;7873;52.230;12.856;2023-02-22T01:09:35;100924.00;;;24.90
15544;BMP180;7873;52.230;12.856;2023-02-22T01:12:04;100920.47;;;24.90
15544;BMP180;7873;52.230;12.856;2023-02-22T01:14:33;100911.91;;;24.86
15544;BMP180;7873;52.230;12.856;2023-02-22T01:17:00;100914.13;;;24.83
15544;BMP180;7873;52.230;12.856;2023-02-22T01:19:27;100912.66;;;24.80
15544;BMP180;7873;52.230;12.856;2023-02-22T01:21:53;100911.38;;;24.76
15544;BMP180;7873;52.230;12.856;2023-02-22T01:24:20;100916.91;;;24.75
15544;BMP180;7873;52.230;12.856;2023-02-22T01:26:49;100923.03;;;24.69
15544;BMP180;7873;52.230;12.856;2023-02-22T01:29:17;100915.13;;;24.67
15544;BMP180;7873;52.230;12.856;2023-02-22T01:31:52;100911.13;;;24.63
15544;BMP180;7873;52.230;12.856;2023-02-22T01:34:20;100905.09;;;24.61
15544;BMP180;7873;52.230;12.856;2023-02-22T01:36:47;100909.84;;;24.59
15544;BMP180;7873;52.230;12.856;2023-02-22T01:39:15;100910.84;;;24.58
15544;BMP180;7873;52.230;12.856;2023-02-22T01:41:42;100907.53;;;24.56
15544;BMP180;7873;52.230;12.856;2023-02-22T01:44:24;100909.56;;;24.54
15544;BMP180;7873;52.230;12.856;2023-02-22T01:46:54;100906.00;;;24.54
15544;BMP180;7873;52.230;12.856;2023-02-22T01:49:22;100905.53;;;24.50
15544;BMP180;7873;52.230;12.856;2023-02-22T01:51:50;100902.19;;;24.48
15544;BMP180;7873;52.230;12.856;2023-02-22T01:54:24;100898.16;;;24.44
15544;BMP180;7873;52.230;12.856;2023-02-22T01:56:53;100898.34;;;24.43
15544;BMP180;7873;52.230;12.856;2023-02-22T01:59:21;100900.56;;;24.39
15544;BMP180;7873;52.230;12.856;2023-02-22T02:01:49;100906.31;;;24.36
15544;BMP180;7873;52.230;12.856;2023-02-22T02:04:20;100898.41;;;24.35
15544;BMP180;7873;52.230;12.856;2023-02-22T02:06:50;100904.81;;;24.34
15544;BMP180;7873;52.230;12.856;2023-02-22T02:09:24;100896.94;;;24.32
15544;BMP180;7873;52.230;12.856;2023-02-22T02:11:54;100894.41;;;24.31
15544;BMP180;7873;52.230;12.856;2023-02-22T02:14:20;100899.34;;;24.27
15544;BMP180;7873;52.230;12.856;2023-02-22T02:16:49;100896.00;;;24.25
15544;BMP180;7873;52.230;12.856;2023-02-22T02:19:23;100889.09;;;24.23
15544;BMP180;7873;52.230;12.856;2023-02-22T02:22:09;100897.53;;;24.20
15544;BMP180;7873;52.230;12.856;2023-02-22T02:25:01;100895.03;;;24.18
15544;BMP180;7873;52.230;12.856;2023-02-22T02:27:40;100899.75;;;24.16
15544;BMP180;7873;52.230;12.856;2023-02-22T02:33:16;100895.75;;;24.12
15544;BMP180;7873;52.230;12.856;2023-02-22T02:35:53;100897.59;;;24.12
15544;BMP180;7873;52.230;12.856;2023-02-22T02:38:30;100891.56;;;24.10
15544;BMP180;7873;52.230;12.856;2023-02-22T02:41:04;100894.44;;;24.08
15544;BMP180;7873;52.230;12.856;2023-02-22T02:43:36;100885.72;;;24.06
15544;BMP180;7873;52.230;12.856;2023-02-22T02:46:09;100895.81;;;24.04
15544;BMP180;7873;52.230;12.856;2023-02-22T02:48:42;100893.13;;;24.04
15544;BMP180;7873;52.230;12.856;2023-02-22T02:54:26;100892.81;;;23.99
15544;BMP180;7873;52.230;12.856;2023-02-22T02:56:55;100895.69;;;23.98
15544;BMP180;7873;52.230;12.856;2023-02-22T02:59:26;100883.63;;;23.94
15544;BMP180;7873;52.230;12.856;2023-02-22T03:02:07;100888.16;;;23.93
15544;BMP180;7873;52.230;12.856;2023-02-22T03:04:47;100884.81;;;23.91
15544;BMP180;7873;52.230;12.856;2023-02-22T03:07:38;100880.44;;;23.90
15544;BMP180;7873;52.230;12.856;2023-02-22T03:10:24;100881.47;;;23.89
15544;BMP180;7873;52.230;12.856;2023-02-22T03:13:00;100872.53;;;23.89
15544;BMP180;7873;52.230;12.856;2023-02-22T03:15:36;100880.97;;;23.86
15544;BMP180;7873;52.230;12.856;2023-02-22T03:18:08;100874.94;;;23.84
15544;BMP180;7873;52.230;12.856;2023-02-22T03:20:47;100872.09;;;23.85
15544;BMP180;7873;52.230;12.856;2023-02-22T03:23:21;100871.22;;;23.85
15544;BMP180;7873;52.230;12.856;2023-02-22T03:25:51;100870.78;;;23.82
15544;BMP180;7873;52.230;12.856;2023-02-22T03:28:23;100869.91;;;23.81
15544;BMP180;7873;52.230;12.856;2023-02-22T03:30:54;100864.72;;;23.79
15544;BMP180;7873;52.230;12.856;2023-02-22T03:33:24;100871.94;;;23.79
15544;BMP180;7873;52.230;12.856;2023-02-22T03:36:03;100869.59;;;23.76
15544;BMP180;7873;52.230;12.856;2023-02-22T03:38:32;100871.78;;;23.73
15544;BMP180;7873;52.230;12.856;2023-02-22T03:41:01;100865.59;;;23.72
15544;BMP180;7873;52.230;12.856;2023-02-22T03:43:30;100870.13;;;23.72
15544;BMP180;7873;52.230;12.856;2023-02-22T03:45:59;100870.13;;;23.72
15544;BMP180;7873;52.230;12.856;2023-02-22T03:48:37;100872.00;;;23.71
15544;BMP180;7873;52.230;12.856;2023-02-22T03:51:06;100874.69;;;23.71
15544;BMP180;7873;52.230;12.856;2023-02-22T03:53:33;100874.84;;;23.70
15544;BMP180;7873;52.230;12.856;2023-02-22T03:56:03;100874.19;;;23.68
15544;BMP180;7873;52.230;12.856;2023-02-22T03:58:33;100877.88;;;23.67
15544;BMP180;7873;52.230;12.856;2023-02-22T04:01:02;100871.84;;;23.65
15544;BMP180;7873;52.230;12.856;2023-02-22T04:03:29;100880.75;;;23.65
15544;BMP180;7873;52.230;12.856;2023-02-22T04:05:56;100873.53;;;23.66
15544;BMP180;7873;52.230;12.856;2023-02-22T04:08:24;100873.22;;;23.61
15544;BMP180;7873;52.230;12.856;2023-02-22T04:10:50;100875.91;;;23.61
15544;BMP180;7873;52.230;12.856;2023-02-22T04:13:17;100881.28;;;23.61
15544;BMP180;7873;52.230;12.856;2023-02-22T04:15:44;100868.88;;;23.60
15544;BMP180;7873;52.230;12.856;2023-02-22T04:18:10;100870.91;;;23.58
15544;BMP180;7873;52.230;12.856;2023-02-22T04:20:38;100871.38;;;23.61
15544;BMP180;7873;52.230;12.856;2023-02-22T04:23:05;100870.72;;;23.59
15544;BMP180;7873;52.230;12.856;2023-02-22T04:25:33;100866.47;;;23.65
15544;BMP180;7873;52.230;12.856;2023-02-22T04:27:59;100864.97;;;23.62
15544;BMP180;7873;52.230;12.856;2023-02-22T04:30:26;100866.34;;;23.58
15544;BMP180;7873;52.230;12.856;2023-02-22T04:32:54;100860.59;;;23.61
15544;BMP180;7873;52.230;12.856;2023-02-22T04:35:21;100869.69;;;23.60
15544;BMP180;7873;52.230;12.856;2023-02-22T04:37:48;100867.50;;;23.64
15544;BMP180;7873;52.230;12.856;2023-02-22T04:40:15;100868.00;;;23.67
15544;BMP180;7873;52.230;12.856;2023-02-22T04:42:43;100868.00;;;23.67
15544;BMP180;7873;52.230;12.856;2023-02-22T04:45:10;100864.09;;;23.70
15544;BMP180;7873;52.230;12.856;2023-02-22T04:47:37;100864.75;;;23.72
15544;BMP180;7873;52.230;12.856;2023-02-22T04:50:05;100854.34;;;23.69
15544;BMP180;7873;52.230;12.856;2023-02-22T04:52:32;100848.16;;;23.68
15544;BMP180;7873;52.230;12.856;2023-02-22T04:54:59;100845.63;;;23.67
15544;BMP180;7873;52.230;12.856;2023-02-22T04:57:25;100848.47;;;23.65
15544;BMP180;7873;52.230;12.856;2023-02-22T04:59:53;100845.75;;;23.73
15544;BMP180;7873;52.230;12.856;2023-02-22T05:02:20;100851.25;;;23.79
15544;BMP180;7873;52.230;12.856;2023-02-22T05:04:47;100855.09;;;23.85
15544;BMP180;7873;52.230;12.856;2023-02-22T05:07:14;100851.03;;;23.89
15544;BMP180;7873;52.230;12.856;2023-02-22T05:09:41;100847.66;;;23.95
15544;BMP180;7873;52.230;12.856;2023-02-22T05:12:07;100839.22;;;23.98
15544;BMP180;7873;52.230;12.856;2023-02-22T05:14:34;100845.25;;;24.00
15544;BMP180;7873;52.230;12.856;2023-02-22T05:17:02;100840.50;;;24.02
15544;BMP180;7873;52.230;12.856;2023-02-22T05:19:29;100846.38;;;24.05
15544;BMP180;7873;52.230;12.856;2023-02-22T05:21:56;100843.03;;;24.03
15544;BMP180;7873;52.230;12.856;2023-02-22T05:24:23;100849.59;;;24.01
15544;BMP180;7873;52.230;12.856;2023-02-22T05:26:50;100851.53;;;23.92
15544;BMP180;7873;52.230;12.856;2023-02-22T05:29:17;100845.88;;;23.79
15544;BMP180;7873;52.230;12.856;2023-02-22T05:31:44;100852.03;;;23.66
15544;BMP180;7873;52.230;12.856;2023-02-22T05:34:12;100851.44;;;23.56
15544;BMP180;7873;52.230;12.856;2023-02-22T05:36:39;100843.59;;;23.46
15544;BMP180;7873;52.230;12.856;2023-02-22T05:39:06;100857.03;;;23.46
15544;BMP180;7873;52.230;12.856;2023-02-22T05:41:33;100851.09;;;23.51
15544;BMP180;7873;52.230;12.856;2023-02-22T05:43:59;100848.59;;;23.49
15544;BMP180;7873;52.230;12.856;2023-02-22T05:46:27;100845.91;;;23.49
15544;BMP180;7873;52.230;12.856;2023-02-22T05:48:54;100852.13;;;23.50
15544;BMP180;7873;52.230;12.856;2023-02-22T05:51:22;100848.41;;;23.51
15544;BMP180;7873;52.230;12.856;2023-02-22T05:53:48;100847.22;;;23.53
15544;BMP180;7873;52.230;12.856;2023-02-22T05:56:20;100855.09;;;23.55
15544;BMP180;7873;52.230;12.856;2023-02-22T05:58:47;100862.34;;;23.54
15544;BMP180;7873;52.230;12.856;2023-02-22T06:01:13;100859.34;;;23.49
15544;BMP180;7873;52.230;12.856;2023-02-22T06:03:40;100864.44;;;23.44
15544;BMP180;7873;52.230;12.856;2023-02-22T06:06:07;100869.66;;;23.38
15544;BMP180;7873;52.230;12.856;2023-02-22T06:08:36;100866.31;;;23.36
15544;BMP180;7873;52.230;12.856;2023-02-22T06:11:03;100859.44;;;23.33
15544;BMP180;7873;52.230;12.856;2023-02-22T06:13:29;100867.00;;;23.30
15544;BMP180;7873;52.230;12.856;2023-02-22T06:15:56;100873.75;;;23.26
15544;BMP180;7873;52.230;12.856;2023-02-22T06:18:24;100872.25;;;23.23
15544;BMP180;7873;52.230;12.856;2023-02-22T06:20:51;100868.72;;;23.23
15544;BMP180;7873;52.230;12.856;2023-02-22T06:23:17;100861.19;;;23.18
15544;BMP180;7873;52.230;12.856;2023-02-22T06:25:46;100872.78;;;23.19
15544;BMP180;7873;52.230;12.856;2023-02-22T06:28:12;100873.78;;;23.18
15544;BMP180;7873;52.230;12.856;2023-02-22T06:30:40;100870.44;;;23.16
15544;BMP180;7873;52.230;12.856;2023-02-22T06:33:08;100882.00;;;23.16
15544;BMP180;7873;52.230;12.856;2023-02-22T06:35:35;100881.19;;;23.16
15544;BMP180;7873;52.230;12.856;2023-02-22T06:38:01;100883.88;;;23.16
15544;BMP180;7873;52.230;12.856;2023-02-22T06:40:28;100878.66;;;23.14
15544;BMP180;7873;52.230;12.856;2023-02-22T06:42:57;100886.91;;;23.13
15544;BMP180;7873;52.230;12.856;2023-02-22T06:45:24;100881.53;;;23.13
15544;BMP180;7873;52.230;12.856;2023-02-22T06:47:51;100890.59;;;23.12
15544;BMP180;7873;52.230;12.856;2023-02-22T06:50:20;100888.06;;;23.10
15544;BMP180;7873;52.230;12.856;2023-02-22T06:52:47;100888.94;;;23.11
15544;BMP180;7873;52.230;12.856;2023-02-22T06:55:19;100889.06;;;23.09
15544;BMP180;7873;52.230;12.856;2023-02-22T06:57:46;100894.59;;;23.08
15544;BMP180;7873;52.230;12.856;2023-02-22T07:00:16;100892.91;;;23.07
15544;BMP180;7873;52.230;12.856;2023-02-22T07:02:44;100892.09;;;23.06
15544;BMP180;7873;52.230;12.856;2023-02-22T07:05:14;100900.31;;;23.05
15544;BMP180;7873;52.230;12.856;2023-02-22T07:07:41;100889.78;;;23.03
15544;BMP180;7873;52.230;12.856;2023-02-22T07:10:16;100890.59;;;23.04
15544;BMP180;7873;52.230;12.856;2023-02-22T07:12:43;100895.13;;;23.03
15544;BMP180;7873;52.230;12.856;2023-02-22T07:15:10;100901.53;;;23.02
15544;BMP180;7873;52.230;12.856;2023-02-22T07:17:39;100891.78;;;23.01
15544;BMP180;7873;52.230;12.856;2023-02-22T07:20:07;100911.59;;;23.00
15544;BMP180;7873;52.230;12.856;2023-02-22T07:22:36;100897.31;;;23.00
15544;BMP180;7873;52.230;12.856;2023-02-22T07:25:03;100897.31;;;23.00
15544;BMP180;7873;52.230;12.856;2023-02-22T07:27:30;100911.41;;;23.02
15544;BMP180;7873;52.230;12.856;2023-02-22T07:29:56;100892.81;;;23.00
15544;BMP180;7873;52.230;12.856;2023-02-22T07:32:23;100899.84;;;23.01
15544;BMP180;7873;52.230;12.856;2023-02-22T07:34:51;100900.00;;;23.00
15544;BMP180;7873;52.230;12.856;2023-02-22T07:37:18;100901.03;;;22.99
15544;BMP180;7873;52.230;12.856;2023-02-22T07:39:45;100903.69;;;22.99
15544;BMP180;7873;52.230;12.856;2023-02-22T07:42:12;100901.88;;;22.99
15544;BMP180;7873;52.230;12.856;2023-02-22T07:44:38;100903.69;;;22.99
15544;BMP180;7873;52.230;12.856;2023-02-22T07:47:05;100911.75;;;22.99
15544;BMP180;7873;52.230;12.856;2023-02-22T07:49:33;100899.50;;;22.96
15544;BMP180;7873;52.230;12.856;2023-02-22T07:52:01;100905.72;;;22.97
15544;BMP180;7873;52.230;12.856;2023-02-22T07:54:28;100903.19;;;22.95
15544;BMP180;7873;52.230;12.856;2023-02-22T07:56:54;100908.75;;;22.94
15544;BMP180;7873;52.230;12.856;2023-02-22T07:59:21;100905.06;;;22.95
15544;BMP180;7873;52.230;12.856;2023-02-22T08:01:48;100903.53;;;22.92
15544;BMP180;7873;52.230;12.856;2023-02-22T08:04:15;100904.41;;;22.93
15544;BMP180;7873;52.230;12.856;2023-02-22T08:06:41;100906.22;;;22.92
15544;BMP180;7873;52.230;12.856;2023-02-22T08:09:12;100908.91;;;22.92
15544;BMP180;7873;52.230;12.856;2023-02-22T08:11:38;100898.19;;;22.92
15544;BMP180;7873;52.230;12.856;2023-02-22T08:14:06;100914.28;;;22.92
15544;BMP180;7873;52.230;12.856;2023-02-22T08:16:32;100911.59;;;22.92
15544;BMP180;7873;52.230;12.856;2023-02-22T08:18:59;100912.47;;;22.93
15544;BMP180;7873;52.230;12.856;2023-02-22T08:21:25;100910.78;;;22.92
15544;BMP180;7873;52.230;12.856;2023-02-22T08:23:52;100907.25;;;22.91
15544;BMP180;7873;52.230;12.856;2023-02-22T08:26:22;100909.09;;;22.91
15544;BMP180;7873;52.230;12.856;2023-02-22T08:28:49;100903.53;;;22.92
15544;BMP180;7873;52.230;12.856;2023-02-22T08:31:16;100901.72;;;22.93
15544;BMP180;7873;52.230;12.856;2023-02-22T08:33:46;100900.69;;;22.94
15544;BMP180;7873;52.230;12.856;2023-02-22T08:36:14;100904.41;;;22.93
15544;BMP180;7873;52.230;12.856;2023-02-22T08:38:40;100897.16;;;22.93
15544;BMP180;7873;52.230;12.856;2023-02-22T08:41:07;100900.69;;;22.94
15544;BMP180;7873;52.230;12.856;2023-02-22T08:43:35;100903.53;;;22.92
15544;BMP180;7873;52.230;12.856;2023-02-22T08:46:02;100903.38;;;22.94
15544;BMP180;7873;52.230;12.856;2023-02-22T08:48:28;100904.41;;;22.93
15544;BMP180;7873;52.230;12.856;2023-02-22T08:50:55;100891.78;;;22.93
15544;BMP180;7873;52.230;12.856;2023-02-22T08:53:22;100896.34;;;22.93
15544;BMP180;7873;52.230;12.856;2023-02-22T08:55:49;100883.06;;;22.91
15544;BMP180;7873;52.230;12.856;2023-02-22T08:58:15;100884.75;;;22.92
15544;BMP180;7873;52.230;12.856;2023-02-22T09:00:44;100889.09;;;22.93
15544;BMP180;7873;52.230;12.856;2023-02-22T09:03:12;100881.06;;;22.93
15544;BMP180;7873;52.230;12.856;2023-02-22T09:05:40;100884.59;;;22.94
15544;BMP180;7873;52.230;12.856;2023-02-22T09:08:06;100883.38;;;22.96
15544;BMP180;7873;52.230;12.856;2023-02-22T09:10:34;100886.06;;;22.96
15544;BMP180;7873;52.230;12.856;2023-02-22T09:13:01;100888.75;;;22.96
15544;BMP180;7873;52.230;12.856;2023-02-22T09:15:28;100889.59;;;22.97
15544;BMP180;7873;52.230;12.856;2023-02-22T09:17:57;100901.88;;;22.99
15544;BMP180;7873;52.230;12.856;2023-02-22T09:20:24;100890.47;;;22.97
15544;BMP180;7873;52.230;12.856;2023-02-22T09:22:51;100889.59;;;22.97
15544;BMP180;7873;52.230;12.856;2023-02-22T09:25:19;100875.16;;;22.98
15544;BMP180;7873;52.230;12.856;2023-02-22T09:27:47;100884.91;;;22.99
15544;BMP180;7873;52.230;12.856;2023-02-22T09:30:20;100884.56;;;23.02
15544;BMP180;7873;52.230;12.856;2023-02-22T09:32:50;100879.19;;;23.02
15544;BMP180;7873;52.230;12.856;2023-02-22T09:35:19;100885.22;;;23.04
15544;BMP180;7873;52.230;12.856;2023-02-22T09:37:55;100876.34;;;23.03
15544;BMP180;7873;52.230;12.856;2023-02-22T09:40:23;100876.34;;;23.03
15544;BMP180;7873;52.230;12.856;2023-02-22T09:43:11;100871.97;;;23.02
15544;BMP180;7873;52.230;12.856;2023-02-22T09:45:47;100872.78;;;23.03
15544;BMP180;7873;52.230;12.856;2023-02-22T09:48:17;100874.66;;;23.02
15544;BMP180;7873;52.230;12.856;2023-02-22T09:50:45;100860.38;;;23.02
15544;BMP180;7873;52.230;12.856;2023-02-22T09:53:21;100865.75;;;23.02
15544;BMP180;7873;52.230;12.856;2023-02-22T09:55:57;100862.06;;;23.03
15544;BMP180;7873;52.230;12.856;2023-02-22T09:58:27;100859.38;;;23.03
15544;BMP180;7873;52.230;12.856;2023-02-22T10:01:08;100861.38;;;23.01
15544;BMP180;7873;52.230;12.856;2023-02-22T10:03:46;100858.72;;;23.01
15544;BMP180;7873;52.230;12.856;2023-02-22T10:06:19;100859.56;;;23.01
15544;BMP180;7873;52.230;12.856;2023-02-22T10:08:48;100858.72;;;23.01
15544;BMP180;7873;52.230;12.856;2023-02-22T10:11:27;100856.03;;;23.01
15544;BMP180;7873;52.230;12.856;2023-02-22T10:14:03;100857.03;;;23.00
15544;BMP180;7873;52.230;12.856;2023-02-22T10:16:35;100860.72;;;22.99
15544;BMP180;7873;52.230;12.856;2023-02-22T10:19:16;100858.91;;;22.99
15544;BMP180;7873;52.230;12.856;2023-02-22T10:21:59;100861.59;;;22.99
15544;BMP180;7873;52.230;12.856;2023-02-22T10:24:36;100850.00;;;22.99
15544;BMP180;7873;52.230;12.856;2023-02-22T10:27:14;100855.56;;;22.97
15544;BMP180;7873;52.230;12.856;2023-02-22T10:29:43;100855.34;;;22.99
15544;BMP180;7873;52.230;12.856;2023-02-22T10:32:16;100852.88;;;22.97
15544;BMP180;7873;52.230;12.856;2023-02-22T10:34:47;100851.16;;;22.96
15544;BMP180;7873;52.230;12.856;2023-02-22T10:37:23;100854.53;;;22.98
15544;BMP180;7873;52.230;12.856;2023-02-22T10:39:55;100853.03;;;22.96
15544;BMP180;7873;52.230;12.856;2023-02-22T10:42:25;100852.00;;;22.97
15544;BMP180;7873;52.230;12.856;2023-02-22T10:44:52;100850.34;;;22.96
15544;BMP180;7873;52.230;12.856;2023-02-22T10:47:20;100842.44;;;22.94
15544;BMP180;7873;52.230;12.856;2023-02-22T10:49:49;100841.63;;;22.94
15544;BMP180;7873;52.230;12.856;2023-02-22T10:52:23;100837.25;;;22.93
15544;BMP180;7873;52.230;12.856;2023-02-22T10:54:53;100837.25;;;22.93
15544;BMP180;7873;52.230;12.856;2023-02-22T10:57:24;100830.22;;;22.92
15544;BMP180;7873;52.230;12.856;2023-02-22T10:59:51;100838.09;;;22.93
15544;BMP180;7873;52.230;12.856;2023-02-22T11:02:23;100837.41;;;22.91
15544;BMP180;7873;52.230;12.856;2023-02-22T11:04:54;100839.28;;;22.91
15544;BMP180;7873;52.230;12.856;2023-02-22T11:07:25;100840.09;;;22.91
15544;BMP180;7873;52.230;12.856;2023-02-22T11:09:54;100832.06;;;22.91
15544;BMP180;7873;52.230;12.856;2023-02-22T11:12:27;100836.59;;;22.91
15544;BMP180;7873;52.230;12.856;2023-02-22T11:14:54;100834.06;;;22.89
15544;BMP180;7873;52.230;12.856;2023-02-22T11:17:27;100831.59;;;22.88
15544;BMP180;7873;52.230;12.856;2023-02-22T11:19:55;100836.94;;;22.88
15544;BMP180;7873;52.230;12.856;2023-02-22T11:22:25;100821.00;;;22.86
15544;BMP180;7873;52.230;12.856;2023-02-22T11:24:57;100822.00;;;22.85
15544;BMP180;7873;52.230;12.856;2023-02-22T11:27:30;100823.84;;;22.85
15544;BMP180;7873;52.230;12.856;2023-02-22T11:30:09;100822.16;;;22.84
15544;BMP180;7873;52.230;12.856;2023-02-22T11:32:42;100815.97;;;22.83
15544;BMP180;7873;52.230;12.856;2023-02-22T11:35:18;100813.09;;;22.85
15544;BMP180;7873;52.230;12.856;2023-02-22T11:37:47;100813.47;;;22.82
15544;BMP180;7873;52.230;12.856;2023-02-22T11:40:16;100809.09;;;22.81
15544;BMP180;7873;52.230;12.856;2023-02-22T11:42:47;100803.72;;;22.81
15544;BMP180;7873;52.230;12.856;2023-02-22T11:45:16;100805.59;;;22.80
15544;BMP180;7873;52.230;12.856;2023-02-22T11:47:49;100797.53;;;22.80
15544;BMP180;7873;52.230;12.856;2023-02-22T11:50:21;100795.88;;;22.79
15544;BMP180;7873;52.230;12.856;2023-02-22T11:52:56;100792.34;;;22.79
15544;BMP180;7873;52.230;12.856;2023-02-22T11:55:30;100790.66;;;22.78
15544;BMP180;7873;52.230;12.856;2023-02-22T11:58:03;100794.19;;;22.78
15544;BMP180;7873;52.230;12.856;2023-02-22T12:00:43;100789.63;;;22.79
15544;BMP180;7873;52.230;12.856;2023-02-22T12:03:33;100792.34;;;22.79
15544;BMP180;7873;52.230;12.856;2023-02-22T12:06:19;100787.97;;;22.78
15544;BMP180;7873;52.230;12.856;2023-02-22T12:08:59;100784.47;;;22.77
15544;BMP180;7873;52.230;12.856;2023-02-22T12:11:35;100783.63;;;22.77
15544;BMP180;7873;52.230;12.856;2023-02-22T12:14:13;100788.16;;;22.76
15544;BMP180;7873;52.230;12.856;2023-02-22T12:16:56;100786.50;;;22.75
15544;BMP180;7873;52.230;12.856;2023-02-22T12:19:29;100783.81;;;22.75
15544;BMP180;7873;52.230;12.856;2023-02-22T12:22:00;100786.66;;;22.74
15544;BMP180;7873;52.230;12.856;2023-02-22T12:24:35;100782.13;;;22.74
15544;BMP180;7873;52.230;12.856;2023-02-22T12:27:06;100783.97;;;22.74
15544;BMP180;7873;52.230;12.856;2023-02-22T12:29:38;100792.03;;;22.74
15544;BMP180;7873;52.230;12.856;2023-02-22T12:32:12;100785.78;;;22.73
15544;BMP180;7873;52.230;12.856;2023-02-22T12:34:44;100791.16;;;22.73
15544;BMP180;7873;52.230;12.856;2023-02-22T12:37:17;100787.66;;;22.73
15544;BMP180;7873;52.230;12.856;2023-02-22T12:39:54;100781.44;;;22.72
15544;BMP180;7873;52.230;12.856;2023-02-22T12:42:27;100789.50;;;22.72
15544;BMP180;7873;52.230;12.856;2023-02-22T12:44:59;100782.44;;;22.71
15544;BMP180;7873;52.230;12.856;2023-02-22T12:47:31;100783.47;;;22.70
15544;BMP180;7873;52.230;12.856;2023-02-22T12:50:04;100784.31;;;22.71
15544;BMP180;7873;52.230;12.856;2023-02-22T12:52:40;100788.00;;;22.70
15544;BMP180;7873;52.230;12.856;2023-02-22T12:55:13;100784.47;;;22.69
15544;BMP180;7873;52.230;12.856;2023-02-22T12:57:43;100774.75;;;22.68
15544;BMP180;7873;52.230;12.856;2023-02-22T13:00:16;100777.44;;;22.68
15544;BMP180;7873;52.230;12.856;2023-02-22T13:02:55;100773.06;;;22.67
15544;BMP180;7873;52.230;12.856;2023-02-22T13:05:23;100771.41;;;22.66
15544;BMP180;7873;52.230;12.856;2023-02-22T13:08:01;100770.41;;;22.67
15544;BMP180;7873;52.230;12.856;2023-02-22T13:10:54;100766.22;;;22.65
15544;BMP180;7873;52.230;12.856;2023-02-22T13:13:28;100771.75;;;22.63
15544;BMP180;7873;52.230;12.856;2023-02-22T13:16:03;100760.34;;;22.61
15544;BMP180;7873;52.230;12.856;2023-02-22T13:18:36;100759.50;;;22.61
15544;BMP180;7873;52.230;12.856;2023-02-22T13:21:12;100766.75;;;22.60
15544;BMP180;7873;52.230;12.856;2023-02-22T13:23:46;100758.69;;;22.60
15544;BMP180;7873;52.230;12.856;2023-02-22T13:26:21;100753.47;;;22.59
15544;BMP180;7873;52.230;12.856;2023-02-22T13:28:55;100756.16;;;22.59
15544;BMP180;7873;52.230;12.856;2023-02-22T13:31:45;100750.78;;;22.59
15544;BMP180;7873;52.230;12.856;2023-02-22T13:34:30;100751.66;;;22.59
15544;BMP180;7873;52.230;12.856;2023-02-22T13:37:09;100753.66;;;22.57
15544;BMP180;7873;52.230;12.856;2023-02-22T13:39:54;100759.03;;;22.57
15544;BMP180;7873;52.230;12.856;2023-02-22T13:42:40;100751.16;;;22.56
15544;BMP180;7873;52.230;12.856;2023-02-22T13:48:39;100747.66;;;22.55
15544;BMP180;7873;52.230;12.856;2023-02-22T13:51:12;100748.66;;;22.54
15544;BMP180;7873;52.230;12.856;2023-02-22T13:53:47;100748.00;;;22.52
15544;BMP180;7873;52.230;12.856;2023-02-22T13:56:16;100745.13;;;22.54
15544;BMP180;7873;52.230;12.856;2023-02-22T13:58:51;100741.41;;;22.55
15544;BMP180;7873;52.230;12.856;2023-02-22T14:01:36;100736.91;;;22.55
15544;BMP180;7873;52.230;12.856;2023-02-22T14:04:26;100737.25;;;22.52
15544;BMP180;7873;52.230;12.856;2023-02-22T14:06:59;100736.25;;;22.53
15544;BMP180;7873;52.230;12.856;2023-02-22T14:09:47;100729.22;;;22.52
15544;BMP180;7873;52.230;12.856;2023-02-22T14:12:46;100737.41;;;22.51
15544;BMP180;7873;52.230;12.856;2023-02-22T14:15:16;100731.19;;;22.50
15544;BMP180;7873;52.230;12.856;2023-02-22T14:17:45;100737.41;;;22.51
15544;BMP180;7873;52.230;12.856;2023-02-22T14:20:23;100728.72;;;22.49
15544;BMP180;7873;52.230;12.856;2023-02-22T14:22:56;100738.59;;;22.48
15544;BMP180;7873;52.230;12.856;2023-02-22T14:25:36;100732.22;;;22.49